sensor_id;sensor_type;location;lat;lon;timestamp;P1;durP1;ratioP1;P2;durP2;ratioP2
66893;SDS011;53801;55.786;49.142;2023-12-29T00:02:08;6.17;;;1.97;;
66893;SDS011;53801;55.786;49.142;2023-12-29T00:04:33;5.03;;;1.55;;
66893;SDS011;53801;55.786;49.142;2023-12-29T00:06:59;3.87;;;1.40;;
66893;SDS011;53801;55.786;49.142;2023-12-29T00:09:24;6.47;;;2.07;;
66893;SDS011;53801;55.786;49.142;2023-12-29T00:11:50;7.03;;;1.67;;
66893;SDS011;53801;55.786;49.142;2023-12-29T00:14:16;8.27;;;2.08;;
66893;SDS011;53801;55.786;49.142;2023-12-29T00:16:41;6.43;;;2.27;;
66893;SDS011;53801;55.786;49.142;2023-12-29T00:19:11;5.43;;;1.52;;
66893;SDS011;53801;55.786;49.142;2023-12-29T00:21:39;4.78;;;1.60;;
66893;SDS011;53801;55.786;49.142;2023-12-29T00:24:05;5.70;;;1.67;;
66893;SDS011;53801;55.786;49.142;2023-12-29T00:26:31;6.20;;;1.70;;
66893;SDS011;53801;55.786;49.142;2023-12-29T00:28:59;8.25;;;2.15;;
66893;SDS011;53801;55.786;49.142;2023-12-29T00:31:25;5.43;;;2.10;;
66893;SDS011;53801;55.786;49.142;2023-12-29T00:33:51;4.75;;;1.25;;
66893;SDS011;53801;55.786;49.142;2023-12-29T00:36:20;6.40;;;2.05;;
66893;SDS011;53801;55.786;49.142;2023-12-29T00:38:47;8.27;;;1.63;;
66893;SDS011;53801;55.786;49.142;2023-12-29T00:41:14;9.13;;;2.10;;
66893;SDS011;53801;55.786;49.142;2023-12-29T00:43:39;7.32;;;1.73;;
66893;SDS011;53801;55.786;49.142;2023-12-29T00:46:05;6.20;;;1.80;;
66893;SDS011;53801;55.786;49.142;2023-12-29T00:48:31;5.93;;;1.87;;
66893;SDS011;53801;55.786;49.142;2023-12-29T00:51:03;8.90;;;2.08;;
66893;SDS011;53801;55.786;49.142;2023-12-29T00:53:29;7.53;;;2.15;;
66893;SDS011;53801;55.786;49.142;2023-12-29T00:55:56;9.45;;;2.80;;
66893;SDS011;53801;55.786;49.142;2023-12-29T00:58:21;9.77;;;3.60;;
66893;SDS011;53801;55.786;49.142;2023-12-29T01:00:47;7.27;;;1.93;;
66893;SDS011;53801;55.786;49.142;2023-12-29T01:03:12;12.70;;;2.40;;
66893;SDS011;53801;55.786;49.142;2023-12-29T01:05:38;7.13;;;2.13;;
66893;SDS011;53801;55.786;49.142;2023-12-29T01:08:04;8.20;;;4.10;;
66893;SDS011;53801;55.786;49.142;2023-12-29T01:10:29;8.65;;;2.30;;
66893;SDS011;53801;55.786;49.142;2023-12-29T01:12:55;6.67;;;2.23;;
66893;SDS011;53801;55.786;49.142;2023-12-29T01:15:20;7.60;;;2.07;;
66893;SDS011;53801;55.786;49.142;2023-12-29T01:17:46;9.45;;;2.22;;
66893;SDS011;53801;55.786;49.142;2023-12-29T01:20:12;8.30;;;2.20;;
66893;SDS011;53801;55.786;49.142;2023-12-29T01:22:37;7.83;;;2.37;;
66893;SDS011;53801;55.786;49.142;2023-12-29T01:25:03;13.82;;;3.22;;
66893;SDS011;53801;55.786;49.142;2023-12-29T01:27:30;7.15;;;2.55;;
66893;SDS011;53801;55.786;49.142;2023-12-29T01:29:55;9.10;;;2.20;;
66893;SDS011;53801;55.786;49.142;2023-12-29T01:32:21;7.30;;;2.37;;
66893;SDS011;53801;55.786;49.142;2023-12-29T01:34:46;7.32;;;2.42;;
66893;SDS011;53801;55.786;49.142;2023-12-29T01:37:12;7.60;;;2.23;;
66893;SDS011;53801;55.786;49.142;2023-12-29T01:39:38;7.07;;;1.77;;
66893;SDS011;53801;55.786;49.142;2023-12-29T01:42:05;5.40;;;1.40;;
66893;SDS011;53801;55.786;49.142;2023-12-29T01:44:30;10.30;;;2.38;;
66893;SDS011;53801;55.786;49.142;2023-12-29T01:46:59;7.25;;;2.10;;
66893;SDS011;53801;55.786;49.142;2023-12-29T01:49:25;5.80;;;1.70;;
66893;SDS011;53801;55.786;49.142;2023-12-29T01:51:52;7.43;;;2.35;;
66893;SDS011;53801;55.786;49.142;2023-12-29T01:54:19;6.13;;;2.03;;
66893;SDS011;53801;55.786;49.142;2023-12-29T01:56:46;9.23;;;2.13;;
66893;SDS011;53801;55.786;49.142;2023-12-29T01:59:12;8.55;;;2.25;;
66893;SDS011;53801;55.786;49.142;2023-12-29T02:01:37;8.82;;;2.45;;
66893;SDS011;53801;55.786;49.142;2023-12-29T02:04:05;10.27;;;2.33;;
66893;SDS011;53801;55.786;49.142;2023-12-29T02:06:30;8.73;;;2.65;;
66893;SDS011;53801;55.786;49.142;2023-12-29T02:08:57;7.22;;;2.88;;
66893;SDS011;53801;55.786;49.142;2023-12-29T02:11:23;7.07;;;2.55;;
66893;SDS011;53801;55.786;49.142;2023-12-29T02:13:49;7.57;;;1.98;;
66893;SDS011;53801;55.786;49.142;2023-12-29T02:19:03;6.88;;;1.95;;
66893;SDS011;53801;55.786;49.142;2023-12-29T02:21:29;8.70;;;2.83;;
66893;SDS011;53801;55.786;49.142;2023-12-29T02:23:55;10.93;;;2.53;;
66893;SDS011;53801;55.786;49.142;2023-12-29T02:26:20;6.50;;;2.20;;
66893;SDS011;53801;55.786;49.142;2023-12-29T02:28:50;9.02;;;2.13;;
66893;SDS011;53801;55.786;49.142;2023-12-29T02:31:19;7.68;;;2.15;;
66893;SDS011;53801;55.786;49.142;2023-12-29T02:33:45;8.20;;;2.43;;
66893;SDS011;53801;55.786;49.142;2023-12-29T02:36:12;8.88;;;2.15;;
66893;SDS011;53801;55.786;49.142;2023-12-29T02:38:38;6.75;;;2.08;;
66893;SDS011;53801;55.786;49.142;2023-12-29T02:41:07;8.40;;;1.90;;
66893;SDS011;53801;55.786;49.142;2023-12-29T02:43:33;7.55;;;2.40;;
66893;SDS011;53801;55.786;49.142;2023-12-29T02:45:59;9.23;;;2.20;;
66893;SDS011;53801;55.786;49.142;2023-12-29T02:48:24;7.87;;;2.33;;
66893;SDS011;53801;55.786;49.142;2023-12-29T02:50:50;7.13;;;1.77;;
66893;SDS011;53801;55.786;49.142;2023-12-29T02:53:15;6.07;;;2.30;;
66893;SDS011;53801;55.786;49.142;2023-12-29T02:55:41;6.50;;;2.20;;
66893;SDS011;53801;55.786;49.142;2023-12-29T02:58:07;7.55;;;2.25;;
66893;SDS011;53801;55.786;49.142;2023-12-29T03:00:32;6.83;;;2.40;;
66893;SDS011;53801;55.786;49.142;2023-12-29T03:02:58;7.57;;;2.42;;
66893;SDS011;53801;55.786;49.142;2023-12-29T03:05:24;10.90;;;2.77;;
66893;SDS011;53801;55.786;49.142;2023-12-29T03:07:49;7.00;;;2.30;;
66893;SDS011;53801;55.786;49.142;2023-12-29T03:10:15;8.18;;;2.05;;
66893;SDS011;53801;55.786;49.142;2023-12-29T03:12:40;5.70;;;1.90;;
66893;SDS011;53801;55.786;49.142;2023-12-29T03:15:06;7.90;;;2.47;;
66893;SDS011;53801;55.786;49.142;2023-12-29T03:17:32;10.32;;;2.50;;
66893;SDS011;53801;55.786;49.142;2023-12-29T03:19:58;6.17;;;2.20;;
66893;SDS011;53801;55.786;49.142;2023-12-29T03:22:23;9.00;;;2.67;;
66893;SDS011;53801;55.786;49.142;2023-12-29T03:24:49;6.93;;;2.30;;
66893;SDS011;53801;55.786;49.142;2023-12-29T03:27:14;7.53;;;2.37;;
66893;SDS011;53801;55.786;49.142;2023-12-29T03:29:40;3.60;;;1.20;;
66893;SDS011;53801;55.786;49.142;2023-12-29T03:32:05;9.03;;;2.43;;
66893;SDS011;53801;55.786;49.142;2023-12-29T03:34:32;6.93;;;2.22;;
66893;SDS011;53801;55.786;49.142;2023-12-29T03:36:58;6.87;;;1.97;;
66893;SDS011;53801;55.786;49.142;2023-12-29T03:39:23;6.38;;;1.88;;
66893;SDS011;53801;55.786;49.142;2023-12-29T03:41:49;5.17;;;1.37;;
66893;SDS011;53801;55.786;49.142;2023-12-29T03:44:14;7.63;;;2.10;;
66893;SDS011;53801;55.786;49.142;2023-12-29T03:46:40;6.82;;;2.17;;
66893;SDS011;53801;55.786;49.142;2023-12-29T03:49:06;8.07;;;2.20;;
66893;SDS011;53801;55.786;49.142;2023-12-29T03:51:31;7.00;;;2.17;;
66893;SDS011;53801;55.786;49.142;2023-12-29T03:53:57;9.30;;;4.63;;
66893;SDS011;53801;55.786;49.142;2023-12-29T03:56:23;8.73;;;2.60;;
66893;SDS011;53801;55.786;49.142;2023-12-29T03:58:49;7.37;;;2.07;;
66893;SDS011;53801;55.786;49.142;2023-12-29T04:01:15;7.88;;;2.10;;
66893;SDS011;53801;55.786;49.142;2023-12-29T04:03:41;5.07;;;1.60;;
66893;SDS011;53801;55.786;49.142;2023-12-29T04:06:06;6.00;;;2.30;;
66893;SDS011;53801;55.786;49.142;2023-12-29T04:08:33;7.47;;;2.03;;
66893;SDS011;53801;55.786;49.142;2023-12-29T04:10:58;4.90;;;1.37;;
66893;SDS011;53801;55.786;49.142;2023-12-29T04:13:24;4.68;;;1.52;;
66893;SDS011;53801;55.786;49.142;2023-12-29T04:15:49;4.57;;;1.30;;
66893;SDS011;53801;55.786;49.142;2023-12-29T04:18:16;5.60;;;1.40;;
66893;SDS011;53801;55.786;49.142;2023-12-29T04:20:42;3.50;;;1.25;;
66893;SDS011;53801;55.786;49.142;2023-12-29T04:23:07;3.47;;;1.40;;
66893;SDS011;53801;55.786;49.142;2023-12-29T04:25:33;5.73;;;1.80;;
66893;SDS011;53801;55.786;49.142;2023-12-29T04:27:59;4.50;;;1.37;;
66893;SDS011;53801;55.786;49.142;2023-12-29T04:30:26;4.95;;;1.70;;
66893;SDS011;53801;55.786;49.142;2023-12-29T04:32:52;4.43;;;1.25;;
66893;SDS011;53801;55.786;49.142;2023-12-29T04:35:17;4.60;;;1.40;;
66893;SDS011;53801;55.786;49.142;2023-12-29T04:37:43;4.47;;;1.53;;
66893;SDS011;53801;55.786;49.142;2023-12-29T04:40:09;3.85;;;1.48;;
66893;SDS011;53801;55.786;49.142;2023-12-29T04:42:35;3.95;;;1.42;;
66893;SDS011;53801;55.786;49.142;2023-12-29T04:45:00;7.00;;;1.88;;
66893;SDS011;53801;55.786;49.142;2023-12-29T04:47:26;4.83;;;1.50;;
66893;SDS011;53801;55.786;49.142;2023-12-29T04:49:51;5.77;;;1.50;;
66893;SDS011;53801;55.786;49.142;2023-12-29T04:52:17;5.00;;;1.58;;
66893;SDS011;53801;55.786;49.142;2023-12-29T04:54:43;5.17;;;2.00;;
66893;SDS011;53801;55.786;49.142;2023-12-29T04:57:08;4.17;;;1.40;;
66893;SDS011;53801;55.786;49.142;2023-12-29T04:59:34;5.65;;;1.83;;
66893;SDS011;53801;55.786;49.142;2023-12-29T05:01:59;4.33;;;1.80;;
66893;SDS011;53801;55.786;49.142;2023-12-29T05:04:25;4.53;;;1.57;;
66893;SDS011;53801;55.786;49.142;2023-12-29T05:06:50;3.30;;;1.30;;
66893;SDS011;53801;55.786;49.142;2023-12-29T05:09:16;3.83;;;1.27;;
66893;SDS011;53801;55.786;49.142;2023-12-29T05:11:41;4.20;;;1.40;;
66893;SDS011;53801;55.786;49.142;2023-12-29T05:14:07;5.17;;;1.47;;
66893;SDS011;53801;55.786;49.142;2023-12-29T05:16:32;5.03;;;1.27;;
66893;SDS011;53801;55.786;49.142;2023-12-29T05:18:58;3.75;;;1.33;;
66893;SDS011;53801;55.786;49.142;2023-12-29T05:21:23;3.57;;;1.10;;
66893;SDS011;53801;55.786;49.142;2023-12-29T05:23:51;4.93;;;1.42;;
66893;SDS011;53801;55.786;49.142;2023-12-29T05:26:16;4.67;;;1.70;;
66893;SDS011;53801;55.786;49.142;2023-12-29T05:28:42;5.15;;;1.08;;
66893;SDS011;53801;55.786;49.142;2023-12-29T05:31:08;5.07;;;1.40;;
66893;SDS011;53801;55.786;49.142;2023-12-29T05:33:33;4.60;;;1.77;;
66893;SDS011;53801;55.786;49.142;2023-12-29T05:36:04;6.18;;;1.70;;
66893;SDS011;53801;55.786;49.142;2023-12-29T05:38:31;6.20;;;1.88;;
66893;SDS011;53801;55.786;49.142;2023-12-29T05:40:56;4.13;;;1.43;;
66893;SDS011;53801;55.786;49.142;2023-12-29T05:43:22;7.38;;;2.08;;
66893;SDS011;53801;55.786;49.142;2023-12-29T05:45:47;4.83;;;1.53;;
66893;SDS011;53801;55.786;49.142;2023-12-29T05:48:13;5.57;;;1.40;;
66893;SDS011;53801;55.786;49.142;2023-12-29T05:50:38;5.68;;;1.48;;
66893;SDS011;53801;55.786;49.142;2023-12-29T05:53:04;4.20;;;1.57;;
66893;SDS011;53801;55.786;49.142;2023-12-29T05:55:31;4.32;;;1.55;;
66893;SDS011;53801;55.786;49.142;2023-12-29T05:57:56;3.53;;;1.20;;
66893;SDS011;53801;55.786;49.142;2023-12-29T06:00:25;5.17;;;1.93;;
66893;SDS011;53801;55.786;49.142;2023-12-29T06:02:51;5.68;;;1.10;;
66893;SDS011;53801;55.786;49.142;2023-12-29T06:05:16;5.18;;;1.42;;
66893;SDS011;53801;55.786;49.142;2023-12-29T06:07:42;3.17;;;1.30;;
66893;SDS011;53801;55.786;49.142;2023-12-29T06:10:08;7.03;;;1.95;;
66893;SDS011;53801;55.786;49.142;2023-12-29T06:12:34;3.60;;;1.40;;
66893;SDS011;53801;55.786;49.142;2023-12-29T06:15:01;4.57;;;1.50;;
66893;SDS011;53801;55.786;49.142;2023-12-29T06:17:30;4.90;;;1.20;;
66893;SDS011;53801;55.786;49.142;2023-12-29T06:19:56;3.90;;;1.05;;
66893;SDS011;53801;55.786;49.142;2023-12-29T06:22:22;3.50;;;1.30;;
66893;SDS011;53801;55.786;49.142;2023-12-29T06:24:47;4.53;;;1.45;;
66893;SDS011;53801;55.786;49.142;2023-12-29T06:27:15;5.33;;;1.53;;
66893;SDS011;53801;55.786;49.142;2023-12-29T06:29:41;6.50;;;1.65;;
66893;SDS011;53801;55.786;49.142;2023-12-29T06:32:07;5.22;;;1.58;;
66893;SDS011;53801;55.786;49.142;2023-12-29T06:34:33;7.03;;;3.00;;
66893;SDS011;53801;55.786;49.142;2023-12-29T06:36:59;6.20;;;2.50;;
66893;SDS011;53801;55.786;49.142;2023-12-29T06:39:26;7.20;;;2.10;;
66893;SDS011;53801;55.786;49.142;2023-12-29T06:41:51;6.73;;;1.80;;
66893;SDS011;53801;55.786;49.142;2023-12-29T06:44:17;6.65;;;3.13;;
66893;SDS011;53801;55.786;49.142;2023-12-29T06:46:42;8.30;;;2.60;;
66893;SDS011;53801;55.786;49.142;2023-12-29T06:49:08;6.83;;;2.60;;
66893;SDS011;53801;55.786;49.142;2023-12-29T06:51:34;4.78;;;1.90;;
66893;SDS011;53801;55.786;49.142;2023-12-29T06:54:01;5.67;;;1.87;;
66893;SDS011;53801;55.786;49.142;2023-12-29T06:56:27;4.82;;;1.65;;
66893;SDS011;53801;55.786;49.142;2023-12-29T06:58:56;7.70;;;2.33;;
66893;SDS011;53801;55.786;49.142;2023-12-29T07:01:21;5.03;;;2.00;;
66893;SDS011;53801;55.786;49.142;2023-12-29T07:03:47;5.57;;;1.80;;
66893;SDS011;53801;55.786;49.142;2023-12-29T07:06:12;5.33;;;1.97;;
66893;SDS011;53801;55.786;49.142;2023-12-29T07:08:38;4.93;;;1.70;;
66893;SDS011;53801;55.786;49.142;2023-12-29T07:11:11;5.13;;;1.65;;
66893;SDS011;53801;55.786;49.142;2023-12-29T07:13:37;8.00;;;2.78;;
66893;SDS011;53801;55.786;49.142;2023-12-29T07:16:03;5.78;;;2.25;;
66893;SDS011;53801;55.786;49.142;2023-12-29T07:21:48;5.53;;;2.00;;
66893;SDS011;53801;55.786;49.142;2023-12-29T07:24:16;8.43;;;1.95;;
66893;SDS011;53801;55.786;49.142;2023-12-29T07:26:41;5.33;;;1.97;;
66893;SDS011;53801;55.786;49.142;2023-12-29T07:29:07;5.82;;;1.90;;
66893;SDS011;53801;55.786;49.142;2023-12-29T07:31:35;7.23;;;2.20;;
66893;SDS011;53801;55.786;49.142;2023-12-29T07:34:03;6.68;;;1.88;;
66893;SDS011;53801;55.786;49.142;2023-12-29T07:36:29;4.60;;;1.80;;
66893;SDS011;53801;55.786;49.142;2023-12-29T07:38:54;4.93;;;2.08;;
66893;SDS011;53801;55.786;49.142;2023-12-29T07:41:20;5.23;;;2.13;;
66893;SDS011;53801;55.786;49.142;2023-12-29T07:43:49;6.95;;;2.17;;
66893;SDS011;53801;55.786;49.142;2023-12-29T07:46:23;5.60;;;2.33;;
66893;SDS011;53801;55.786;49.142;2023-12-29T07:48:48;5.93;;;2.50;;
66893;SDS011;53801;55.786;49.142;2023-12-29T07:51:14;5.33;;;2.20;;
66893;SDS011;53801;55.786;49.142;2023-12-29T07:56:31;4.50;;;1.95;;
66893;SDS011;53801;55.786;49.142;2023-12-29T07:59:00;4.75;;;1.77;;
66893;SDS011;53801;55.786;49.142;2023-12-29T08:01:28;6.67;;;2.90;;
66893;SDS011;53801;55.786;49.142;2023-12-29T08:03:54;5.15;;;2.17;;
66893;SDS011;53801;55.786;49.142;2023-12-29T08:06:20;5.97;;;2.40;;
66893;SDS011;53801;55.786;49.142;2023-12-29T08:08:45;4.30;;;1.87;;
66893;SDS011;53801;55.786;49.142;2023-12-29T08:11:14;5.67;;;2.10;;
66893;SDS011;53801;55.786;49.142;2023-12-29T08:13:46;4.93;;;1.92;;
66893;SDS011;53801;55.786;49.142;2023-12-29T08:16:11;10.45;;;2.13;;
66893;SDS011;53801;55.786;49.142;2023-12-29T08:18:37;6.03;;;2.27;;
66893;SDS011;53801;55.786;49.142;2023-12-29T08:21:03;5.90;;;1.90;;
66893;SDS011;53801;55.786;49.142;2023-12-29T08:23:31;4.93;;;1.88;;
66893;SDS011;53801;55.786;49.142;2023-12-29T08:25:59;8.10;;;2.10;;
66893;SDS011;53801;55.786;49.142;2023-12-29T08:28:25;6.38;;;2.42;;
66893;SDS011;53801;55.786;49.142;2023-12-29T08:30:54;5.03;;;1.95;;
66893;SDS011;53801;55.786;49.142;2023-12-29T08:33:22;5.13;;;2.33;;
66893;SDS011;53801;55.786;49.142;2023-12-29T08:35:48;6.00;;;2.20;;
66893;SDS011;53801;55.786;49.142;2023-12-29T08:38:13;6.40;;;2.88;;
66893;SDS011;53801;55.786;49.142;2023-12-29T08:40:41;4.45;;;2.17;;
66893;SDS011;53801;55.786;49.142;2023-12-29T08:43:08;7.03;;;2.50;;
66893;SDS011;53801;55.786;49.142;2023-12-29T08:45:34;5.90;;;2.40;;
66893;SDS011;53801;55.786;49.142;2023-12-29T08:48:00;6.35;;;2.28;;
66893;SDS011;53801;55.786;49.142;2023-12-29T08:50:26;4.40;;;2.47;;
66893;SDS011;53801;55.786;49.142;2023-12-29T08:52:52;4.97;;;2.28;;
66893;SDS011;53801;55.786;49.142;2023-12-29T08:55:17;6.18;;;2.40;;
66893;SDS011;53801;55.786;49.142;2023-12-29T08:57:43;5.65;;;2.40;;
66893;SDS011;53801;55.786;49.142;2023-12-29T09:00:09;7.43;;;2.63;;
66893;SDS011;53801;55.786;49.142;2023-12-29T09:02:35;5.22;;;2.35;;
66893;SDS011;53801;55.786;49.142;2023-12-29T09:05:00;7.17;;;2.20;;
66893;SDS011;53801;55.786;49.142;2023-12-29T09:07:27;5.67;;;2.10;;
66893;SDS011;53801;55.786;49.142;2023-12-29T09:09:53;5.47;;;2.15;;
66893;SDS011;53801;55.786;49.142;2023-12-29T09:12:19;5.33;;;2.03;;
66893;SDS011;53801;55.786;49.142;2023-12-29T09:14:44;5.83;;;2.17;;
66893;SDS011;53801;55.786;49.142;2023-12-29T09:17:10;5.35;;;2.15;;
66893;SDS011;53801;55.786;49.142;2023-12-29T09:19:37;6.67;;;2.27;;
66893;SDS011;53801;55.786;49.142;2023-12-29T09:22:02;4.28;;;1.80;;
66893;SDS011;53801;55.786;49.142;2023-12-29T09:24:28;5.95;;;2.30;;
66893;SDS011;53801;55.786;49.142;2023-12-29T09:26:54;4.20;;;1.80;;
66893;SDS011;53801;55.786;49.142;2023-12-29T09:29:19;5.93;;;2.30;;
66893;SDS011;53801;55.786;49.142;2023-12-29T09:31:45;6.53;;;2.00;;
66893;SDS011;53801;55.786;49.142;2023-12-29T09:34:10;7.25;;;2.40;;
66893;SDS011;53801;55.786;49.142;2023-12-29T09:36:36;6.00;;;2.10;;
66893;SDS011;53801;55.786;49.142;2023-12-29T09:39:01;5.50;;;2.10;;
66893;SDS011;53801;55.786;49.142;2023-12-29T09:41:28;4.85;;;1.83;;
66893;SDS011;53801;55.786;49.142;2023-12-29T09:43:55;5.95;;;2.28;;
66893;SDS011;53801;55.786;49.142;2023-12-29T09:46:21;3.95;;;1.90;;
66893;SDS011;53801;55.786;49.142;2023-12-29T09:48:48;7.13;;;2.13;;
66893;SDS011;53801;55.786;49.142;2023-12-29T09:51:17;5.53;;;2.42;;
66893;SDS011;53801;55.786;49.142;2023-12-29T09:53:47;5.20;;;2.13;;
66893;SDS011;53801;55.786;49.142;2023-12-29T09:56:13;6.63;;;2.47;;
66893;SDS011;53801;55.786;49.142;2023-12-29T09:58:39;5.07;;;1.50;;
66893;SDS011;53801;55.786;49.142;2023-12-29T10:01:06;9.23;;;3.10;;
66893;SDS011;53801;55.786;49.142;2023-12-29T10:03:32;6.93;;;2.70;;
66893;SDS011;53801;55.786;49.142;2023-12-29T10:05:59;7.47;;;2.43;;
66893;SDS011;53801;55.786;49.142;2023-12-29T10:08:25;10.25;;;3.22;;
66893;SDS011;53801;55.786;49.142;2023-12-29T10:10:52;6.47;;;1.88;;
66893;SDS011;53801;55.786;49.142;2023-12-29T10:13:18;3.93;;;1.50;;
66893;SDS011;53801;55.786;49.142;2023-12-29T10:15:54;7.70;;;2.25;;
66893;SDS011;53801;55.786;49.142;2023-12-29T10:18:32;7.60;;;2.47;;
66893;SDS011;53801;55.786;49.142;2023-12-29T10:21:08;6.55;;;2.50;;
66893;SDS011;53801;55.786;49.142;2023-12-29T10:24:21;6.60;;;2.13;;
66893;SDS011;53801;55.786;49.142;2023-12-29T10:26:26;8.00;;;2.10;;
66893;SDS011;53801;55.786;49.142;2023-12-29T10:28:52;7.95;;;2.67;;
66893;SDS011;53801;55.786;49.142;2023-12-29T10:31:17;5.40;;;2.03;;
66893;SDS011;53801;55.786;49.142;2023-12-29T10:33:43;6.57;;;2.58;;
66893;SDS011;53801;55.786;49.142;2023-12-29T10:36:08;7.53;;;2.67;;
66893;SDS011;53801;55.786;49.142;2023-12-29T10:38:39;7.63;;;2.35;;
66893;SDS011;53801;55.786;49.142;2023-12-29T10:43:40;6.60;;;2.13;;
66893;SDS011;53801;55.786;49.142;2023-12-29T10:46:06;5.85;;;1.77;;
66893;SDS011;53801;55.786;49.142;2023-12-29T10:48:35;6.53;;;2.17;;
66893;SDS011;53801;55.786;49.142;2023-12-29T10:51:04;8.93;;;2.65;;
66893;SDS011;53801;55.786;49.142;2023-12-29T10:53:30;8.73;;;3.03;;
66893;SDS011;53801;55.786;49.142;2023-12-29T10:55:56;9.82;;;2.60;;
66893;SDS011;53801;55.786;49.142;2023-12-29T10:58:24;7.15;;;2.38;;
66893;SDS011;53801;55.786;49.142;2023-12-29T11:00:53;5.65;;;2.10;;
66893;SDS011;53801;55.786;49.142;2023-12-29T11:03:18;9.20;;;2.75;;
66893;SDS011;53801;55.786;49.142;2023-12-29T11:05:44;7.77;;;2.30;;
66893;SDS011;53801;55.786;49.142;2023-12-29T11:08:16;6.40;;;2.40;;
66893;SDS011;53801;55.786;49.142;2023-12-29T11:10:42;6.10;;;1.88;;
66893;SDS011;53801;55.786;49.142;2023-12-29T11:13:08;5.17;;;1.83;;
66893;SDS011;53801;55.786;49.142;2023-12-29T11:15:35;5.70;;;2.20;;
66893;SDS011;53801;55.786;49.142;2023-12-29T11:18:01;5.82;;;2.05;;
66893;SDS011;53801;55.786;49.142;2023-12-29T11:20:28;5.47;;;1.73;;
66893;SDS011;53801;55.786;49.142;2023-12-29T11:22:54;8.23;;;2.40;;
66893;SDS011;53801;55.786;49.142;2023-12-29T11:25:19;8.03;;;2.57;;
66893;SDS011;53801;55.786;49.142;2023-12-29T11:27:45;7.13;;;3.35;;
66893;SDS011;53801;55.786;49.142;2023-12-29T11:30:11;8.47;;;2.40;;
66893;SDS011;53801;55.786;49.142;2023-12-29T11:35:26;4.85;;;1.65;;
66893;SDS011;53801;55.786;49.142;2023-12-29T11:38:01;6.83;;;2.53;;
66893;SDS011;53801;55.786;49.142;2023-12-29T11:40:30;7.03;;;1.90;;
66893;SDS011;53801;55.786;49.142;2023-12-29T11:43:00;5.72;;;1.88;;
66893;SDS011;53801;55.786;49.142;2023-12-29T11:45:30;7.65;;;2.85;;
66893;SDS011;53801;55.786;49.142;2023-12-29T11:48:00;8.73;;;2.58;;
66893;SDS011;53801;55.786;49.142;2023-12-29T11:50:28;7.60;;;2.30;;
66893;SDS011;53801;55.786;49.142;2023-12-29T11:52:54;5.45;;;1.77;;
66893;SDS011;53801;55.786;49.142;2023-12-29T11:55:20;6.32;;;1.98;;
66893;SDS011;53801;55.786;49.142;2023-12-29T11:57:45;6.47;;;1.93;;
66893;SDS011;53801;55.786;49.142;2023-12-29T12:00:11;6.00;;;2.22;;
66893;SDS011;53801;55.786;49.142;2023-12-29T12:02:38;6.13;;;2.05;;
66893;SDS011;53801;55.786;49.142;2023-12-29T12:05:04;9.40;;;3.25;;
66893;SDS011;53801;55.786;49.142;2023-12-29T12:12:42;11.97;;;2.80;;
66893;SDS011;53801;55.786;49.142;2023-12-29T12:17:52;11.93;;;3.38;;
66893;SDS011;53801;55.786;49.142;2023-12-29T12:20:17;12.10;;;3.00;;
66893;SDS011;53801;55.786;49.142;2023-12-29T12:22:43;11.75;;;3.42;;
66893;SDS011;53801;55.786;49.142;2023-12-29T12:25:10;10.23;;;2.55;;
66893;SDS011;53801;55.786;49.142;2023-12-29T12:27:37;12.87;;;2.80;;
66893;SDS011;53801;55.786;49.142;2023-12-29T12:30:02;9.98;;;2.67;;
66893;SDS011;53801;55.786;49.142;2023-12-29T12:32:30;10.10;;;2.70;;
66893;SDS011;53801;55.786;49.142;2023-12-29T12:34:56;12.10;;;3.30;;
66893;SDS011;53801;55.786;49.142;2023-12-29T12:37:22;8.52;;;2.55;;
66893;SDS011;53801;55.786;49.142;2023-12-29T12:39:48;8.57;;;2.58;;
66893;SDS011;53801;55.786;49.142;2023-12-29T12:42:15;9.87;;;2.20;;
66893;SDS011;53801;55.786;49.142;2023-12-29T12:44:41;9.75;;;2.63;;
66893;SDS011;53801;55.786;49.142;2023-12-29T12:47:07;6.95;;;2.38;;
66893;SDS011;53801;55.786;49.142;2023-12-29T12:49:34;7.35;;;2.20;;
66893;SDS011;53801;55.786;49.142;2023-12-29T12:51:59;7.87;;;2.67;;
66893;SDS011;53801;55.786;49.142;2023-12-29T12:54:25;11.40;;;2.97;;
66893;SDS011;53801;55.786;49.142;2023-12-29T12:56:50;8.52;;;2.63;;
66893;SDS011;53801;55.786;49.142;2023-12-29T12:59:16;7.07;;;2.63;;
66893;SDS011;53801;55.786;49.142;2023-12-29T13:01:42;7.85;;;2.58;;
66893;SDS011;53801;55.786;49.142;2023-12-29T13:04:08;7.65;;;2.25;;
66893;SDS011;53801;55.786;49.142;2023-12-29T13:06:34;9.98;;;2.90;;
66893;SDS011;53801;55.786;49.142;2023-12-29T13:09:05;9.32;;;2.30;;
66893;SDS011;53801;55.786;49.142;2023-12-29T13:11:36;7.57;;;2.55;;
66893;SDS011;53801;55.786;49.142;2023-12-29T13:14:02;7.67;;;2.60;;
66893;SDS011;53801;55.786;49.142;2023-12-29T13:16:28;7.90;;;2.25;;
66893;SDS011;53801;55.786;49.142;2023-12-29T13:18:53;7.20;;;2.25;;
66893;SDS011;53801;55.786;49.142;2023-12-29T13:21:19;9.10;;;2.83;;
66893;SDS011;53801;55.786;49.142;2023-12-29T13:23:45;11.13;;;2.60;;
66893;SDS011;53801;55.786;49.142;2023-12-29T13:26:10;7.13;;;1.97;;
66893;SDS011;53801;55.786;49.142;2023-12-29T13:28:37;9.27;;;2.90;;
66893;SDS011;53801;55.786;49.142;2023-12-29T13:31:03;8.70;;;2.85;;
66893;SDS011;53801;55.786;49.142;2023-12-29T13:33:34;11.30;;;3.45;;
66893;SDS011;53801;55.786;49.142;2023-12-29T13:38:53;12.05;;;2.42;;
66893;SDS011;53801;55.786;49.142;2023-12-29T13:41:19;7.10;;;1.90;;
66893;SDS011;53801;55.786;49.142;2023-12-29T13:43:45;7.60;;;2.78;;
66893;SDS011;53801;55.786;49.142;2023-12-29T13:46:13;9.93;;;2.83;;
66893;SDS011;53801;55.786;49.142;2023-12-29T13:48:41;8.67;;;2.67;;
66893;SDS011;53801;55.786;49.142;2023-12-29T13:51:07;6.75;;;2.85;;
66893;SDS011;53801;55.786;49.142;2023-12-29T13:53:32;9.43;;;2.47;;
66893;SDS011;53801;55.786;49.142;2023-12-29T13:56:07;15.98;;;3.70;;
66893;SDS011;53801;55.786;49.142;2023-12-29T13:58:33;8.77;;;2.20;;
66893;SDS011;53801;55.786;49.142;2023-12-29T14:00:59;8.07;;;2.43;;
66893;SDS011;53801;55.786;49.142;2023-12-29T14:03:32;6.65;;;1.98;;
66893;SDS011;53801;55.786;49.142;2023-12-29T14:06:00;7.37;;;2.13;;
66893;SDS011;53801;55.786;49.142;2023-12-29T14:08:32;8.10;;;2.30;;
66893;SDS011;53801;55.786;49.142;2023-12-29T14:10:59;10.57;;;2.97;;
66893;SDS011;53801;55.786;49.142;2023-12-29T14:13:24;7.23;;;2.50;;
66893;SDS011;53801;55.786;49.142;2023-12-29T14:15:50;7.10;;;2.90;;
66893;SDS011;53801;55.786;49.142;2023-12-29T14:20:44;9.25;;;2.30;;
66893;SDS011;53801;55.786;49.142;2023-12-29T14:23:09;8.57;;;2.50;;
66893;SDS011;53801;55.786;49.142;2023-12-29T14:25:36;8.97;;;3.50;;
66893;SDS011;53801;55.786;49.142;2023-12-29T14:28:23;9.68;;;3.08;;
66893;SDS011;53801;55.786;49.142;2023-12-29T14:30:48;10.30;;;3.10;;
66893;SDS011;53801;55.786;49.142;2023-12-29T14:33:14;9.63;;;2.90;;
66893;SDS011;53801;55.786;49.142;2023-12-29T14:35:39;10.27;;;3.27;;
66893;SDS011;53801;55.786;49.142;2023-12-29T14:38:05;13.97;;;4.73;;
66893;SDS011;53801;55.786;49.142;2023-12-29T14:40:31;14.07;;;4.13;;
66893;SDS011;53801;55.786;49.142;2023-12-29T14:43:00;16.52;;;3.63;;
66893;SDS011;53801;55.786;49.142;2023-12-29T14:45:25;13.20;;;3.75;;
66893;SDS011;53801;55.786;49.142;2023-12-29T14:47:51;12.37;;;3.93;;
66893;SDS011;53801;55.786;49.142;2023-12-29T14:50:16;9.25;;;3.47;;
66893;SDS011;53801;55.786;49.142;2023-12-29T14:52:42;13.80;;;4.22;;
66893;SDS011;53801;55.786;49.142;2023-12-29T14:55:07;12.37;;;3.40;;
66893;SDS011;53801;55.786;49.142;2023-12-29T14:57:33;16.43;;;3.90;;